sensor_id;sensor_type;location;lat;lon;timestamp;temperature;humidity
6948;DHT22;3513;47.664;9.162;2023-08-12T00:00:19;19.00;99.90
6948;DHT22;3513;47.664;9.162;2023-08-12T00:02:45;19.00;99.90
6948;DHT22;3513;47.664;9.162;2023-08-12T00:05:12;18.90;99.90
6948;DHT22;3513;47.664;9.162;2023-08-12T00:07:39;18.90;99.90
6948;DHT22;3513;47.664;9.162;2023-08-12T00:10:09;18.80;99.90
6948;DHT22;3513;47.664;9.162;2023-08-12T00:12:36;18.70;99.90
6948;DHT22;3513;47.664;9.162;2023-08-12T00:15:03;18.70;99.90
6948;DHT22;3513;47.664;9.162;2023-08-12T00:17:29;18.60;99.90
6948;DHT22;3513;47.664;9.162;2023-08-12T00:19:55;18.50;99.90
6948;DHT22;3513;47.664;9.162;2023-08-12T00:22:21;18.50;99.90
6948;DHT22;3513;47.664;9.162;2023-08-12T00:24:47;18.40;99.90
6948;DHT22;3513;47.664;9.162;2023-08-12T00:27:13;18.40;99.90
6948;DHT22;3513;47.664;9.162;2023-08-12T00:29:39;18.40;99.90
6948;DHT22;3513;47.664;9.162;2023-08-12T00:32:05;18.40;99.90
6948;DHT22;3513;47.664;9.162;2023-08-12T00:34:31;18.40;99.90
6948;DHT22;3513;47.664;9.162;2023-08-12T00:36:57;18.40;99.90
6948;DHT22;3513;47.664;9.162;2023-08-12T00:39:22;18.50;99.90
6948;DHT22;3513;47.664;9.162;2023-08-12T00:41:48;18.40;99.90
6948;DHT22;3513;47.664;9.162;2023-08-12T00:44:14;18.40;99.90
6948;DHT22;3513;47.664;9.162;2023-08-12T00:46:41;18.50;99.90
6948;DHT22;3513;47.664;9.162;2023-08-12T00:49:07;18.50;99.90
6948;DHT22;3513;47.664;9.162;2023-08-12T00:51:32;18.40;99.90
6948;DHT22;3513;47.664;9.162;2023-08-12T00:53:58;18.40;99.90
6948;DHT22;3513;47.664;9.162;2023-08-12T00:56:26;18.40;99.90
6948;DHT22;3513;47.664;9.162;2023-08-12T00:58:53;18.40;99.90
6948;DHT22;3513;47.664;9.162;2023-08-12T01:01:19;18.40;99.90
6948;DHT22;3513;47.664;9.162;2023-08-12T01:03:45;18.20;99.90
6948;DHT22;3513;47.664;9.162;2023-08-12T01:06:12;18.20;99.90
6948;DHT22;3513;47.664;9.162;2023-08-12T01:08:37;18.10;99.90
6948;DHT22;3513;47.664;9.162;2023-08-12T01:13:49;18.10;99.90
6948;DHT22;3513;47.664;9.162;2023-08-12T01:16:17;18.10;99.90
6948;DHT22;3513;47.664;9.162;2023-08-12T01:18:44;18.10;99.90
6948;DHT22;3513;47.664;9.162;2023-08-12T01:21:15;18.10;99.90
6948;DHT22;3513;47.664;9.162;2023-08-12T01:23:42;18.00;99.90
6948;DHT22;3513;47.664;9.162;2023-08-12T01:26:08;17.90;99.90
6948;DHT22;3513;47.664;9.162;2023-08-12T01:28:33;17.90;99.90
6948;DHT22;3513;47.664;9.162;2023-08-12T01:31:10;17.90;99.90
6948;DHT22;3513;47.664;9.162;2023-08-12T01:34:00;17.90;99.90
6948;DHT22;3513;47.664;9.162;2023-08-12T01:36:29;18.00;99.90
6948;DHT22;3513;47.664;9.162;2023-08-12T01:38:57;18.00;99.90
6948;DHT22;3513;47.664;9.162;2023-08-12T01:41:25;18.00;99.90
6948;DHT22;3513;47.664;9.162;2023-08-12T01:43:51;18.00;99.90
6948;DHT22;3513;47.664;9.162;2023-08-12T01:46:17;18.00;99.90
6948;DHT22;3513;47.664;9.162;2023-08-12T01:48:42;17.90;99.90
6948;DHT22;3513;47.664;9.162;2023-08-12T01:51:08;17.90;99.90
6948;DHT22;3513;47.664;9.162;2023-08-12T01:53:33;17.90;99.90
6948;DHT22;3513;47.664;9.162;2023-08-12T01:55:59;18.00;99.90
6948;DHT22;3513;47.664;9.162;2023-08-12T01:58:25;18.00;99.90
6948;DHT22;3513;47.664;9.162;2023-08-12T02:00:52;17.90;99.90
6948;DHT22;3513;47.664;9.162;2023-08-12T02:03:18;17.90;99.90
6948;DHT22;3513;47.664;9.162;2023-08-12T02:05:44;17.80;99.90
6948;DHT22;3513;47.664;9.162;2023-08-12T02:08:09;17.80;99.90
6948;DHT22;3513;47.664;9.162;2023-08-12T02:10:35;17.70;99.90
6948;DHT22;3513;47.664;9.162;2023-08-12T02:13:00;17.70;99.90
6948;DHT22;3513;47.664;9.162;2023-08-12T02:15:28;17.70;99.90
6948;DHT22;3513;47.664;9.162;2023-08-12T02:17:53;17.80;99.90
6948;DHT22;3513;47.664;9.162;2023-08-12T02:20:19;17.80;99.90
6948;DHT22;3513;47.664;9.162;2023-08-12T02:22:45;17.80;99.90
6948;DHT22;3513;47.664;9.162;2023-08-12T02:25:10;17.90;99.90
6948;DHT22;3513;47.664;9.162;2023-08-12T02:27:36;17.90;99.90
6948;DHT22;3513;47.664;9.162;2023-08-12T02:30:01;17.90;99.90
6948;DHT22;3513;47.664;9.162;2023-08-12T02:32:27;17.90;99.90
6948;DHT22;3513;47.664;9.162;2023-08-12T02:34:53;17.90;99.90
6948;DHT22;3513;47.664;9.162;2023-08-12T02:37:19;17.90;99.90
6948;DHT22;3513;47.664;9.162;2023-08-12T02:39:44;17.90;99.90
6948;DHT22;3513;47.664;9.162;2023-08-12T02:42:10;17.90;99.90
6948;DHT22;3513;47.664;9.162;2023-08-12T02:44:35;18.00;99.90
6948;DHT22;3513;47.664;9.162;2023-08-12T02:47:01;18.10;99.90
6948;DHT22;3513;47.664;9.162;2023-08-12T02:49:26;18.10;99.90
6948;DHT22;3513;47.664;9.162;2023-08-12T02:51:53;18.10;99.90
6948;DHT22;3513;47.664;9.162;2023-08-12T02:54:18;18.10;99.90
6948;DHT22;3513;47.664;9.162;2023-08-12T02:56:44;18.10;99.90
6948;DHT22;3513;47.664;9.162;2023-08-12T02:59:09;18.10;99.90
6948;DHT22;3513;47.664;9.162;2023-08-12T03:01:35;18.10;99.90
6948;DHT22;3513;47.664;9.162;2023-08-12T03:04:00;18.10;99.90
6948;DHT22;3513;47.664;9.162;2023-08-12T03:06:26;18.10;99.90
6948;DHT22;3513;47.664;9.162;2023-08-12T03:08:51;18.10;99.90
6948;DHT22;3513;47.664;9.162;2023-08-12T03:11:17;18.10;99.90
6948;DHT22;3513;47.664;9.162;2023-08-12T03:13:44;18.10;99.90
6948;DHT22;3513;47.664;9.162;2023-08-12T03:16:13;18.10;99.90
6948;DHT22;3513;47.664;9.162;2023-08-12T03:18:39;18.10;99.90
6948;DHT22;3513;47.664;9.162;2023-08-12T03:21:09;18.10;99.90
6948;DHT22;3513;47.664;9.162;2023-08-12T03:23:38;18.10;99.90
6948;DHT22;3513;47.664;9.162;2023-08-12T03:26:03;18.10;99.90
6948;DHT22;3513;47.664;9.162;2023-08-12T03:28:30;18.10;99.90
6948;DHT22;3513;47.664;9.162;2023-08-12T03:30:56;18.10;99.90
6948;DHT22;3513;47.664;9.162;2023-08-12T03:33:22;18.10;99.90
6948;DHT22;3513;47.664;9.162;2023-08-12T03:35:48;18.10;99.90
6948;DHT22;3513;47.664;9.162;2023-08-12T03:38:15;18.10;99.90
6948;DHT22;3513;47.664;9.162;2023-08-12T03:40:41;18.10;99.90
6948;DHT22;3513;47.664;9.162;2023-08-12T03:43:08;18.10;99.90
6948;DHT22;3513;47.664;9.162;2023-08-12T03:45:40;18.20;99.90
6948;DHT22;3513;47.664;9.162;2023-08-12T03:48:06;18.20;99.90
6948;DHT22;3513;47.664;9.162;2023-08-12T03:50:35;18.20;99.90
6948;DHT22;3513;47.664;9.162;2023-08-12T03:53:01;18.20;99.90
6948;DHT22;3513;47.664;9.162;2023-08-12T03:55:30;18.20;99.90
6948;DHT22;3513;47.664;9.162;2023-08-12T03:57:57;18.20;99.90
6948;DHT22;3513;47.664;9.162;2023-08-12T04:00:22;18.20;99.90
6948;DHT22;3513;47.664;9.162;2023-08-12T04:02:48;18.30;99.90
6948;DHT22;3513;47.664;9.162;2023-08-12T04:05:13;18.30;99.90
6948;DHT22;3513;47.664;9.162;2023-08-12T04:07:39;18.30;99.90
6948;DHT22;3513;47.664;9.162;2023-08-12T04:10:05;18.40;99.90
6948;DHT22;3513;47.664;9.162;2023-08-12T04:12:30;18.40;99.90
6948;DHT22;3513;47.664;9.162;2023-08-12T04:14:56;18.40;99.90
6948;DHT22;3513;47.664;9.162;2023-08-12T04:17:22;18.40;99.90
6948;DHT22;3513;47.664;9.162;2023-08-12T04:19:47;18.40;99.90
6948;DHT22;3513;47.664;9.162;2023-08-12T04:22:13;18.40;99.90
6948;DHT22;3513;47.664;9.162;2023-08-12T04:24:38;18.40;99.90
6948;DHT22;3513;47.664;9.162;2023-08-12T04:27:04;18.40;99.90
6948;DHT22;3513;47.664;9.162;2023-08-12T04:29:30;18.40;99.90
6948;DHT22;3513;47.664;9.162;2023-08-12T04:31:55;18.40;99.90
6948;DHT22;3513;47.664;9.162;2023-08-12T04:34:21;18.40;99.90
6948;DHT22;3513;47.664;9.162;2023-08-12T04:36:47;18.40;99.90
6948;DHT22;3513;47.664;9.162;2023-08-12T04:39:12;18.40;99.90
6948;DHT22;3513;47.664;9.162;2023-08-12T04:41:38;18.40;99.90
6948;DHT22;3513;47.664;9.162;2023-08-12T04:44:04;18.40;99.90
6948;DHT22;3513;47.664;9.162;2023-08-12T04:46:30;18.50;99.90
6948;DHT22;3513;47.664;9.162;2023-08-12T04:48:56;18.50;99.90
6948;DHT22;3513;47.664;9.162;2023-08-12T04:51:21;18.50;99.90
6948;DHT22;3513;47.664;9.162;2023-08-12T04:53:47;18.50;99.90
6948;DHT22;3513;47.664;9.162;2023-08-12T04:56:12;18.60;99.90
6948;DHT22;3513;47.664;9.162;2023-08-12T04:58:38;18.60;99.90
6948;DHT22;3513;47.664;9.162;2023-08-12T05:01:04;18.60;99.90
6948;DHT22;3513;47.664;9.162;2023-08-12T05:03:30;18.70;99.90
6948;DHT22;3513;47.664;9.162;2023-08-12T05:05:55;18.70;99.90
6948;DHT22;3513;47.664;9.162;2023-08-12T05:08:21;18.80;99.90
6948;DHT22;3513;47.664;9.162;2023-08-12T05:10:47;18.80;99.90
6948;DHT22;3513;47.664;9.162;2023-08-12T05:13:14;19.00;99.90
6948;DHT22;3513;47.664;9.162;2023-08-12T05:15:39;19.00;99.90
6948;DHT22;3513;47.664;9.162;2023-08-12T05:18:05;19.10;99.90
6948;DHT22;3513;47.664;9.162;2023-08-12T05:20:31;19.10;99.90
6948;DHT22;3513;47.664;9.162;2023-08-12T05:22:57;19.10;99.90
6948;DHT22;3513;47.664;9.162;2023-08-12T05:25:22;19.20;99.90
6948;DHT22;3513;47.664;9.162;2023-08-12T05:27:49;19.10;99.90
6948;DHT22;3513;47.664;9.162;2023-08-12T05:30:14;19.10;99.90
6948;DHT22;3513;47.664;9.162;2023-08-12T05:32:40;19.20;99.90
6948;DHT22;3513;47.664;9.162;2023-08-12T05:35:06;19.20;99.90
6948;DHT22;3513;47.664;9.162;2023-08-12T05:37:32;19.20;99.90
6948;DHT22;3513;47.664;9.162;2023-08-12T05:39:57;19.30;99.90
6948;DHT22;3513;47.664;9.162;2023-08-12T05:42:23;19.30;99.90
6948;DHT22;3513;47.664;9.162;2023-08-12T05:44:49;19.30;99.90
6948;DHT22;3513;47.664;9.162;2023-08-12T05:47:14;19.40;99.90
6948;DHT22;3513;47.664;9.162;2023-08-12T05:49:40;19.40;99.90
6948;DHT22;3513;47.664;9.162;2023-08-12T05:52:05;19.60;99.90
6948;DHT22;3513;47.664;9.162;2023-08-12T05:54:31;19.70;99.90
6948;DHT22;3513;47.664;9.162;2023-08-12T05:56:58;19.80;99.90
6948;DHT22;3513;47.664;9.162;2023-08-12T05:59:23;19.90;99.90
6948;DHT22;3513;47.664;9.162;2023-08-12T06:01:49;20.00;99.90
6948;DHT22;3513;47.664;9.162;2023-08-12T06:04:14;20.10;99.90
6948;DHT22;3513;47.664;9.162;2023-08-12T06:06:40;20.10;99.90
6948;DHT22;3513;47.664;9.162;2023-08-12T06:09:06;20.10;99.90
6948;DHT22;3513;47.664;9.162;2023-08-12T06:11:31;20.20;99.90
6948;DHT22;3513;47.664;9.162;2023-08-12T06:13:57;20.30;99.90
6948;DHT22;3513;47.664;9.162;2023-08-12T06:16:22;20.40;99.90
6948;DHT22;3513;47.664;9.162;2023-08-12T06:18:48;20.40;99.90
6948;DHT22;3513;47.664;9.162;2023-08-12T06:21:14;20.50;99.90
6948;DHT22;3513;47.664;9.162;2023-08-12T06:23:39;20.50;99.90
6948;DHT22;3513;47.664;9.162;2023-08-12T06:26:05;20.50;99.90
6948;DHT22;3513;47.664;9.162;2023-08-12T06:28:30;20.60;99.90
6948;DHT22;3513;47.664;9.162;2023-08-12T06:30:56;20.60;99.90
6948;DHT22;3513;47.664;9.162;2023-08-12T06:33:22;20.70;99.90
6948;DHT22;3513;47.664;9.162;2023-08-12T06:35:47;20.60;99.90
6948;DHT22;3513;47.664;9.162;2023-08-12T06:38:13;20.60;99.90
6948;DHT22;3513;47.664;9.162;2023-08-12T06:40:39;20.70;99.90
6948;DHT22;3513;47.664;9.162;2023-08-12T06:43:05;20.80;99.90
6948;DHT22;3513;47.664;9.162;2023-08-12T06:45:30;21.00;99.90
6948;DHT22;3513;47.664;9.162;2023-08-12T06:47:56;21.10;99.90
6948;DHT22;3513;47.664;9.162;2023-08-12T06:50:21;21.10;99.90
6948;DHT22;3513;47.664;9.162;2023-08-12T06:52:47;21.20;99.90
6948;DHT22;3513;47.664;9.162;2023-08-12T06:55:13;21.30;99.90
6948;DHT22;3513;47.664;9.162;2023-08-12T06:57:38;21.40;99.90
6948;DHT22;3513;47.664;9.162;2023-08-12T07:00:04;21.50;99.90
6948;DHT22;3513;47.664;9.162;2023-08-12T07:02:30;21.50;99.90
6948;DHT22;3513;47.664;9.162;2023-08-12T07:04:56;21.50;99.90
6948;DHT22;3513;47.664;9.162;2023-08-12T07:07:22;21.70;99.90
6948;DHT22;3513;47.664;9.162;2023-08-12T07:09:48;21.80;99.80
6948;DHT22;3513;47.664;9.162;2023-08-12T07:12:13;21.90;99.60
6948;DHT22;3513;47.664;9.162;2023-08-12T07:14:39;22.00;99.40
6948;DHT22;3513;47.664;9.162;2023-08-12T07:17:04;22.10;99.00
6948;DHT22;3513;47.664;9.162;2023-08-12T07:19:30;22.20;98.90
6948;DHT22;3513;47.664;9.162;2023-08-12T07:21:56;22.30;99.10
6948;DHT22;3513;47.664;9.162;2023-08-12T07:24:21;22.40;99.10
6948;DHT22;3513;47.664;9.162;2023-08-12T07:26:47;22.40;99.00
6948;DHT22;3513;47.664;9.162;2023-08-12T07:29:13;22.40;98.40
6948;DHT22;3513;47.664;9.162;2023-08-12T07:31:39;22.20;98.10
6948;DHT22;3513;47.664;9.162;2023-08-12T07:34:04;22.10;98.20
6948;DHT22;3513;47.664;9.162;2023-08-12T07:36:31;22.30;97.70
6948;DHT22;3513;47.664;9.162;2023-08-12T07:38:58;22.40;97.10
6948;DHT22;3513;47.664;9.162;2023-08-12T07:41:23;22.50;97.00
6948;DHT22;3513;47.664;9.162;2023-08-12T07:43:52;22.60;96.70
6948;DHT22;3513;47.664;9.162;2023-08-12T07:46:18;22.80;97.00
6948;DHT22;3513;47.664;9.162;2023-08-12T07:48:44;22.90;96.30
6948;DHT22;3513;47.664;9.162;2023-08-12T07:51:09;23.10;96.00
6948;DHT22;3513;47.664;9.162;2023-08-12T07:53:35;23.20;95.70
6948;DHT22;3513;47.664;9.162;2023-08-12T07:56:00;23.40;95.70
6948;DHT22;3513;47.664;9.162;2023-08-12T07:58:26;23.50;95.30
6948;DHT22;3513;47.664;9.162;2023-08-12T08:00:55;23.60;95.00
6948;DHT22;3513;47.664;9.162;2023-08-12T08:03:20;23.80;94.40
6948;DHT22;3513;47.664;9.162;2023-08-12T08:05:46;24.10;93.70
6948;DHT22;3513;47.664;9.162;2023-08-12T08:08:13;24.30;93.20
6948;DHT22;3513;47.664;9.162;2023-08-12T08:10:38;24.70;93.20
6948;DHT22;3513;47.664;9.162;2023-08-12T08:13:04;24.90;92.10
6948;DHT22;3513;47.664;9.162;2023-08-12T08:15:29;24.90;90.90
6948;DHT22;3513;47.664;9.162;2023-08-12T08:17:55;25.00;90.90
6948;DHT22;3513;47.664;9.162;2023-08-12T08:20:21;25.10;90.80
6948;DHT22;3513;47.664;9.162;2023-08-12T08:22:46;25.10;90.90
6948;DHT22;3513;47.664;9.162;2023-08-12T08:25:12;25.10;90.50
6948;DHT22;3513;47.664;9.162;2023-08-12T08:27:38;25.10;90.70
6948;DHT22;3513;47.664;9.162;2023-08-12T08:30:05;25.10;91.20
6948;DHT22;3513;47.664;9.162;2023-08-12T08:32:31;25.00;91.40
6948;DHT22;3513;47.664;9.162;2023-08-12T08:34:57;24.90;91.30
6948;DHT22;3513;47.664;9.162;2023-08-12T08:37:22;24.90;91.60
6948;DHT22;3513;47.664;9.162;2023-08-12T08:39:48;25.00;90.90
6948;DHT22;3513;47.664;9.162;2023-08-12T08:42:15;25.00;90.80
6948;DHT22;3513;47.664;9.162;2023-08-12T08:44:43;25.00;90.90
6948;DHT22;3513;47.664;9.162;2023-08-12T08:47:12;25.10;91.40
6948;DHT22;3513;47.664;9.162;2023-08-12T08:49:39;25.30;91.40
6948;DHT22;3513;47.664;9.162;2023-08-12T08:52:05;25.50;91.20
6948;DHT22;3513;47.664;9.162;2023-08-12T08:54:31;25.70;91.00
6948;DHT22;3513;47.664;9.162;2023-08-12T08:56:56;25.90;90.90
6948;DHT22;3513;47.664;9.162;2023-08-12T08:59:22;25.90;90.70
6948;DHT22;3513;47.664;9.162;2023-08-12T09:01:49;26.00;90.60
6948;DHT22;3513;47.664;9.162;2023-08-12T09:04:17;26.00;90.50
6948;DHT22;3513;47.664;9.162;2023-08-12T09:06:44;26.00;90.60
6948;DHT22;3513;47.664;9.162;2023-08-12T09:09:13;26.10;90.60
6948;DHT22;3513;47.664;9.162;2023-08-12T09:11:40;26.10;90.60
6948;DHT22;3513;47.664;9.162;2023-08-12T09:14:06;26.20;90.40
6948;DHT22;3513;47.664;9.162;2023-08-12T09:16:32;26.30;90.00
6948;DHT22;3513;47.664;9.162;2023-08-12T09:18:58;26.40;89.80
6948;DHT22;3513;47.664;9.162;2023-08-12T09:21:24;26.60;89.30
6948;DHT22;3513;47.664;9.162;2023-08-12T09:23:49;26.60;85.50
6948;DHT22;3513;47.664;9.162;2023-08-12T09:26:17;26.60;84.40
6948;DHT22;3513;47.664;9.162;2023-08-12T09:28:43;26.60;84.20
6948;DHT22;3513;47.664;9.162;2023-08-12T09:31:25;26.50;84.10
6948;DHT22;3513;47.664;9.162;2023-08-12T09:33:52;26.40;83.70
6948;DHT22;3513;47.664;9.162;2023-08-12T09:36:18;26.30;83.60
6948;DHT22;3513;47.664;9.162;2023-08-12T09:38:45;26.20;84.00
6948;DHT22;3513;47.664;9.162;2023-08-12T09:41:10;26.00;84.80
6948;DHT22;3513;47.664;9.162;2023-08-12T09:43:43;25.90;85.50
6948;DHT22;3513;47.664;9.162;2023-08-12T09:46:12;25.80;86.80
6948;DHT22;3513;47.664;9.162;2023-08-12T09:48:39;25.90;87.40
6948;DHT22;3513;47.664;9.162;2023-08-12T09:51:05;26.00;88.00
6948;DHT22;3513;47.664;9.162;2023-08-12T09:53:32;26.10;87.20
6948;DHT22;3513;47.664;9.162;2023-08-12T09:56:02;26.10;87.70
6948;DHT22;3513;47.664;9.162;2023-08-12T09:58:31;26.30;88.00
6948;DHT22;3513;47.664;9.162;2023-08-12T10:00:57;26.50;88.10
6948;DHT22;3513;47.664;9.162;2023-08-12T10:03:24;26.80;86.50
6948;DHT22;3513;47.664;9.162;2023-08-12T10:05:50;27.10;84.40
6948;DHT22;3513;47.664;9.162;2023-08-12T10:08:18;27.30;82.70
6948;DHT22;3513;47.664;9.162;2023-08-12T10:10:44;27.30;82.40
6948;DHT22;3513;47.664;9.162;2023-08-12T10:13:10;27.40;82.20
6948;DHT22;3513;47.664;9.162;2023-08-12T10:15:37;27.50;81.80
6948;DHT22;3513;47.664;9.162;2023-08-12T10:18:04;27.50;81.90
6948;DHT22;3513;47.664;9.162;2023-08-12T10:20:32;27.60;80.20
6948;DHT22;3513;47.664;9.162;2023-08-12T10:22:59;27.70;82.70
6948;DHT22;3513;47.664;9.162;2023-08-12T10:25:31;27.60;82.90
6948;DHT22;3513;47.664;9.162;2023-08-12T10:27:57;27.50;80.90
6948;DHT22;3513;47.664;9.162;2023-08-12T10:30:23;27.50;81.50
6948;DHT22;3513;47.664;9.162;2023-08-12T10:32:49;27.40;83.30
6948;DHT22;3513;47.664;9.162;2023-08-12T10:35:15;27.20;83.70
6948;DHT22;3513;47.664;9.162;2023-08-12T10:37:41;27.00;84.10
6948;DHT22;3513;47.664;9.162;2023-08-12T10:40:22;26.90;85.60
6948;DHT22;3513;47.664;9.162;2023-08-12T10:42:49;26.80;87.40
6948;DHT22;3513;47.664;9.162;2023-08-12T10:45:16;26.70;88.00
6948;DHT22;3513;47.664;9.162;2023-08-12T10:47:43;26.60;87.50
6948;DHT22;3513;47.664;9.162;2023-08-12T10:50:22;26.40;88.70
6948;DHT22;3513;47.664;9.162;2023-08-12T10:52:54;26.30;89.90
6948;DHT22;3513;47.664;9.162;2023-08-12T10:57:48;26.20;91.40
6948;DHT22;3513;47.664;9.162;2023-08-12T11:00:24;26.30;91.30
6948;DHT22;3513;47.664;9.162;2023-08-12T11:02:52;26.30;91.40
6948;DHT22;3513;47.664;9.162;2023-08-12T11:05:18;26.30;91.30
6948;DHT22;3513;47.664;9.162;2023-08-12T11:10:14;26.40;92.10
6948;DHT22;3513;47.664;9.162;2023-08-12T11:12:42;26.40;92.20
6948;DHT22;3513;47.664;9.162;2023-08-12T11:15:11;26.40;92.20
6948;DHT22;3513;47.664;9.162;2023-08-12T11:17:39;26.30;91.90
6948;DHT22;3513;47.664;9.162;2023-08-12T11:20:07;26.30;91.50
6948;DHT22;3513;47.664;9.162;2023-08-12T11:22:36;26.30;91.50
6948;DHT22;3513;47.664;9.162;2023-08-12T11:25:04;26.50;91.60
6948;DHT22;3513;47.664;9.162;2023-08-12T11:27:42;26.60;90.70
6948;DHT22;3513;47.664;9.162;2023-08-12T11:30:09;26.80;90.90
6948;DHT22;3513;47.664;9.162;2023-08-12T11:32:37;26.90;90.50
6948;DHT22;3513;47.664;9.162;2023-08-12T11:35:04;26.90;90.70
6948;DHT22;3513;47.664;9.162;2023-08-12T11:37:31;27.00;90.10
6948;DHT22;3513;47.664;9.162;2023-08-12T11:39:57;27.00;90.10
6948;DHT22;3513;47.664;9.162;2023-08-12T11:42:22;27.10;90.20
6948;DHT22;3513;47.664;9.162;2023-08-12T11:44:48;27.10;89.90
6948;DHT22;3513;47.664;9.162;2023-08-12T11:47:14;27.10;89.30
6948;DHT22;3513;47.664;9.162;2023-08-12T11:49:39;27.00;89.50
6948;DHT22;3513;47.664;9.162;2023-08-12T11:52:05;27.00;88.20
6948;DHT22;3513;47.664;9.162;2023-08-12T11:54:31;27.00;88.00
6948;DHT22;3513;47.664;9.162;2023-08-12T11:56:58;27.00;88.00
6948;DHT22;3513;47.664;9.162;2023-08-12T11:59:24;27.00;88.10
6948;DHT22;3513;47.664;9.162;2023-08-12T12:01:51;27.00;88.30
6948;DHT22;3513;47.664;9.162;2023-08-12T12:04:17;26.90;88.60
6948;DHT22;3513;47.664;9.162;2023-08-12T12:06:46;26.90;88.40
6948;DHT22;3513;47.664;9.162;2023-08-12T12:09:13;26.80;88.50
6948;DHT22;3513;47.664;9.162;2023-08-12T12:11:40;26.80;88.40
6948;DHT22;3513;47.664;9.162;2023-08-12T12:14:07;26.80;89.30
6948;DHT22;3513;47.664;9.162;2023-08-12T12:16:40;26.80;90.10
6948;DHT22;3513;47.664;9.162;2023-08-12T12:19:09;26.80;88.10
6948;DHT22;3513;47.664;9.162;2023-08-12T12:21:41;26.90;87.70
6948;DHT22;3513;47.664;9.162;2023-08-12T12:24:10;26.90;86.60
6948;DHT22;3513;47.664;9.162;2023-08-12T12:26:37;26.90;87.20
6948;DHT22;3513;47.664;9.162;2023-08-12T12:29:06;26.90;87.20
6948;DHT22;3513;47.664;9.162;2023-08-12T12:31:32;26.90;85.30
6948;DHT22;3513;47.664;9.162;2023-08-12T12:34:03;26.90;85.70
6948;DHT22;3513;47.664;9.162;2023-08-12T12:36:36;26.90;86.30
6948;DHT22;3513;47.664;9.162;2023-08-12T12:39:02;26.90;84.70
6948;DHT22;3513;47.664;9.162;2023-08-12T12:41:28;26.90;82.70
6948;DHT22;3513;47.664;9.162;2023-08-12T12:43:54;26.80;82.60
6948;DHT22;3513;47.664;9.162;2023-08-12T12:46:19;26.80;81.60
6948;DHT22;3513;47.664;9.162;2023-08-12T12:48:45;26.80;80.20
6948;DHT22;3513;47.664;9.162;2023-08-12T12:51:12;26.90;80.70
6948;DHT22;3513;47.664;9.162;2023-08-12T12:53:37;26.90;80.70
6948;DHT22;3513;47.664;9.162;2023-08-12T12:56:03;27.00;82.40
6948;DHT22;3513;47.664;9.162;2023-08-12T12:58:33;27.10;82.20
6948;DHT22;3513;47.664;9.162;2023-08-12T13:00:59;27.00;83.80
6948;DHT22;3513;47.664;9.162;2023-08-12T13:03:25;26.90;83.60
6948;DHT22;3513;47.664;9.162;2023-08-12T13:05:51;27.10;84.50
6948;DHT22;3513;47.664;9.162;2023-08-12T13:08:17;27.10;84.40
6948;DHT22;3513;47.664;9.162;2023-08-12T13:10:42;27.40;83.40
6948;DHT22;3513;47.664;9.162;2023-08-12T13:13:08;27.70;82.20
6948;DHT22;3513;47.664;9.162;2023-08-12T13:15:34;28.10;80.70
6948;DHT22;3513;47.664;9.162;2023-08-12T13:18:00;28.20;78.00
6948;DHT22;3513;47.664;9.162;2023-08-12T13:20:25;28.20;77.90
6948;DHT22;3513;47.664;9.162;2023-08-12T13:22:51;28.30;76.20
6948;DHT22;3513;47.664;9.162;2023-08-12T13:25:16;28.50;76.20
6948;DHT22;3513;47.664;9.162;2023-08-12T13:27:42;28.90;76.70
6948;DHT22;3513;47.664;9.162;2023-08-12T13:30:09;29.60;74.30
6948;DHT22;3513;47.664;9.162;2023-08-12T13:32:37;30.20;71.60
6948;DHT22;3513;47.664;9.162;2023-08-12T13:35:03;30.60;68.60
6948;DHT22;3513;47.664;9.162;2023-08-12T13:37:29;30.80;67.90
6948;DHT22;3513;47.664;9.162;2023-08-12T13:39:54;31.00;66.60
6948;DHT22;3513;47.664;9.162;2023-08-12T13:42:20;31.10;64.90
6948;DHT22;3513;47.664;9.162;2023-08-12T13:44:48;31.10;64.40
6948;DHT22;3513;47.664;9.162;2023-08-12T13:47:14;31.10;63.10
6948;DHT22;3513;47.664;9.162;2023-08-12T13:49:40;31.30;63.80
6948;DHT22;3513;47.664;9.162;2023-08-12T13:52:05;31.60;61.80
6948;DHT22;3513;47.664;9.162;2023-08-12T13:54:31;31.60;62.20
6948;DHT22;3513;47.664;9.162;2023-08-12T13:56:58;31.80;63.00
6948;DHT22;3513;47.664;9.162;2023-08-12T13:59:24;32.10;62.00
6948;DHT22;3513;47.664;9.162;2023-08-12T14:01:50;32.70;60.70
6948;DHT22;3513;47.664;9.162;2023-08-12T14:04:15;32.90;57.90
6948;DHT22;3513;47.664;9.162;2023-08-12T14:06:41;33.00;58.20
6948;DHT22;3513;47.664;9.162;2023-08-12T14:09:06;33.50;56.70
6948;DHT22;3513;47.664;9.162;2023-08-12T14:11:37;33.60;55.20
6948;DHT22;3513;47.664;9.162;2023-08-12T14:14:02;33.80;54.60
6948;DHT22;3513;47.664;9.162;2023-08-12T14:16:29;34.20;53.60
6948;DHT22;3513;47.664;9.162;2023-08-12T14:18:54;34.40;53.10
6948;DHT22;3513;47.664;9.162;2023-08-12T14:21:20;34.40;52.90
6948;DHT22;3513;47.664;9.162;2023-08-12T14:23:45;34.00;52.80
6948;DHT22;3513;47.664;9.162;2023-08-12T14:26:11;33.60;53.70
6948;DHT22;3513;47.664;9.162;2023-08-12T14:28:37;33.10;54.00
6948;DHT22;3513;47.664;9.162;2023-08-12T14:31:02;32.60;55.30
6948;DHT22;3513;47.664;9.162;2023-08-12T14:33:28;32.30;56.90
6948;DHT22;3513;47.664;9.162;2023-08-12T14:35:57;32.30;56.80
6948;DHT22;3513;47.664;9.162;2023-08-12T14:38:23;32.20;57.60
6948;DHT22;3513;47.664;9.162;2023-08-12T14:40:49;32.10;57.80
6948;DHT22;3513;47.664;9.162;2023-08-12T14:43:15;31.80;58.10
6948;DHT22;3513;47.664;9.162;2023-08-12T14:45:40;31.60;58.80
6948;DHT22;3513;47.664;9.162;2023-08-12T14:48:06;31.50;59.10
6948;DHT22;3513;47.664;9.162;2023-08-12T14:50:32;31.30;59.30
6948;DHT22;3513;47.664;9.162;2023-08-12T14:52:57;31.10;59.70
6948;DHT22;3513;47.664;9.162;2023-08-12T14:55:23;31.20;59.90
6948;DHT22;3513;47.664;9.162;2023-08-12T14:57:48;31.60;59.90
6948;DHT22;3513;47.664;9.162;2023-08-12T15:00:14;32.10;59.50
6948;DHT22;3513;47.664;9.162;2023-08-12T15:02:40;32.70;58.30
6948;DHT22;3513;47.664;9.162;2023-08-12T15:05:07;33.40;56.40
6948;DHT22;3513;47.664;9.162;2023-08-12T15:07:34;34.00;54.90
6948;DHT22;3513;47.664;9.162;2023-08-12T15:10:00;34.30;53.10
6948;DHT22;3513;47.664;9.162;2023-08-12T15:12:26;34.20;53.20
6948;DHT22;3513;47.664;9.162;2023-08-12T15:14:55;33.90;52.90
6948;DHT22;3513;47.664;9.162;2023-08-12T15:17:21;33.50;53.30
6948;DHT22;3513;47.664;9.162;2023-08-12T15:19:46;33.20;54.10
6948;DHT22;3513;47.664;9.162;2023-08-12T15:22:12;32.80;55.20
6948;DHT22;3513;47.664;9.162;2023-08-12T15:24:37;32.30;55.80
6948;DHT22;3513;47.664;9.162;2023-08-12T15:27:03;31.60;55.90
6948;DHT22;3513;47.664;9.162;2023-08-12T15:29:29;31.10;57.20
6948;DHT22;3513;47.664;9.162;2023-08-12T15:31:54;30.70;58.80
6948;DHT22;3513;47.664;9.162;2023-08-12T15:34:21;30.30;60.30
6948;DHT22;3513;47.664;9.162;2023-08-12T15:36:49;30.00;61.30
6948;DHT22;3513;47.664;9.162;2023-08-12T15:39:15;29.90;62.10
6948;DHT22;3513;47.664;9.162;2023-08-12T15:41:42;29.70;63.20
6948;DHT22;3513;47.664;9.162;2023-08-12T15:44:09;29.40;64.70
6948;DHT22;3513;47.664;9.162;2023-08-12T15:46:35;29.30;65.90
6948;DHT22;3513;47.664;9.162;2023-08-12T15:49:01;29.10;66.60
6948;DHT22;3513;47.664;9.162;2023-08-12T15:51:27;29.10;67.40
6948;DHT22;3513;47.664;9.162;2023-08-12T15:53:53;29.00;68.40
6948;DHT22;3513;47.664;9.162;2023-08-12T15:56:19;29.00;68.70
6948;DHT22;3513;47.664;9.162;2023-08-12T15:58:45;28.90;69.60
6948;DHT22;3513;47.664;9.162;2023-08-12T16:01:11;29.00;70.80
6948;DHT22;3513;47.664;9.162;2023-08-12T16:03:38;29.10;70.60